sensor_id;sensor_type;location;lat;lon;timestamp;temperature;humidity
11122;DHT22;5615;49.304;10.576;2024-02-14T00:01:17;-0.30;99.90
11122;DHT22;5615;49.304;10.576;2024-02-14T00:03:45;-0.30;99.90
11122;DHT22;5615;49.304;10.576;2024-02-14T00:06:13;-0.40;99.90
11122;DHT22;5615;49.304;10.576;2024-02-14T00:08:39;-0.30;99.90
11122;DHT22;5615;49.304;10.576;2024-02-14T00:11:06;-0.40;99.90
11122;DHT22;5615;49.304;10.576;2024-02-14T00:13:33;-0.40;99.90
11122;DHT22;5615;49.304;10.576;2024-02-14T00:16:00;-0.40;99.90
11122;DHT22;5615;49.304;10.576;2024-02-14T00:18:27;-0.40;99.90
11122;DHT22;5615;49.304;10.576;2024-02-14T00:20:56;-0.50;99.90
11122;DHT22;5615;49.304;10.576;2024-02-14T00:23:22;-0.40;99.90
11122;DHT22;5615;49.304;10.576;2024-02-14T00:25:49;-0.50;99.90
11122;DHT22;5615;49.304;10.576;2024-02-14T00:28:16;-0.50;99.90
11122;DHT22;5615;49.304;10.576;2024-02-14T00:30:43;-0.50;99.90
11122;DHT22;5615;49.304;10.576;2024-02-14T00:33:09;-0.40;99.90
11122;DHT22;5615;49.304;10.576;2024-02-14T00:35:36;-0.60;99.90
11122;DHT22;5615;49.304;10.576;2024-02-14T00:38:04;-0.60;99.90
11122;DHT22;5615;49.304;10.576;2024-02-14T00:40:31;-0.60;99.90
11122;DHT22;5615;49.304;10.576;2024-02-14T00:42:57;-0.60;99.90
11122;DHT22;5615;49.304;10.576;2024-02-14T00:45:24;-0.70;99.90
11122;DHT22;5615;49.304;10.576;2024-02-14T00:47:51;-0.70;99.90
11122;DHT22;5615;49.304;10.576;2024-02-14T00:50:17;-0.80;99.90
11122;DHT22;5615;49.304;10.576;2024-02-14T00:52:44;-0.70;99.90
11122;DHT22;5615;49.304;10.576;2024-02-14T00:55:12;-0.80;99.90
11122;DHT22;5615;49.304;10.576;2024-02-14T00:57:38;-0.80;99.90
11122;DHT22;5615;49.304;10.576;2024-02-14T01:00:06;-0.80;99.90
11122;DHT22;5615;49.304;10.576;2024-02-14T01:02:34;-0.80;99.90
11122;DHT22;5615;49.304;10.576;2024-02-14T01:05:01;-0.80;99.90
11122;DHT22;5615;49.304;10.576;2024-02-14T01:07:29;-0.80;99.90
11122;DHT22;5615;49.304;10.576;2024-02-14T01:09:56;-0.70;99.90
11122;DHT22;5615;49.304;10.576;2024-02-14T01:12:24;-0.80;99.90
11122;DHT22;5615;49.304;10.576;2024-02-14T01:14:51;-0.80;99.90
11122;DHT22;5615;49.304;10.576;2024-02-14T01:17:18;-0.90;99.90
11122;DHT22;5615;49.304;10.576;2024-02-14T01:19:44;-0.90;99.90
11122;DHT22;5615;49.304;10.576;2024-02-14T01:22:11;-0.90;99.90
11122;DHT22;5615;49.304;10.576;2024-02-14T01:24:41;-0.80;99.90
11122;DHT22;5615;49.304;10.576;2024-02-14T01:27:08;-0.90;99.90
11122;DHT22;5615;49.304;10.576;2024-02-14T01:29:36;-0.90;99.90
11122;DHT22;5615;49.304;10.576;2024-02-14T01:32:03;-0.90;99.90
11122;DHT22;5615;49.304;10.576;2024-02-14T01:34:32;-0.80;99.90
11122;DHT22;5615;49.304;10.576;2024-02-14T01:36:58;-0.70;99.90
11122;DHT22;5615;49.304;10.576;2024-02-14T01:39:25;-0.70;99.90
11122;DHT22;5615;49.304;10.576;2024-02-14T01:41:52;-0.70;99.90
11122;DHT22;5615;49.304;10.576;2024-02-14T01:44:18;-0.70;99.90
11122;DHT22;5615;49.304;10.576;2024-02-14T01:46:47;-0.70;99.90
11122;DHT22;5615;49.304;10.576;2024-02-14T01:49:15;-0.70;99.90
11122;DHT22;5615;49.304;10.576;2024-02-14T01:51:43;-0.80;99.90
11122;DHT22;5615;49.304;10.576;2024-02-14T01:54:11;-0.80;99.90
11122;DHT22;5615;49.304;10.576;2024-02-14T01:56:39;-0.80;99.90
11122;DHT22;5615;49.304;10.576;2024-02-14T01:59:07;-0.90;99.90
11122;DHT22;5615;49.304;10.576;2024-02-14T02:01:34;-0.80;99.90
11122;DHT22;5615;49.304;10.576;2024-02-14T02:04:04;-0.90;99.90
11122;DHT22;5615;49.304;10.576;2024-02-14T02:06:30;-0.90;99.90
11122;DHT22;5615;49.304;10.576;2024-02-14T02:08:57;-0.80;99.90
11122;DHT22;5615;49.304;10.576;2024-02-14T02:11:25;-0.80;99.90
11122;DHT22;5615;49.304;10.576;2024-02-14T02:13:52;-0.70;99.90
11122;DHT22;5615;49.304;10.576;2024-02-14T02:16:19;-0.60;99.90
11122;DHT22;5615;49.304;10.576;2024-02-14T02:18:47;-0.60;99.90
11122;DHT22;5615;49.304;10.576;2024-02-14T02:21:15;-0.50;99.90
11122;DHT22;5615;49.304;10.576;2024-02-14T02:23:46;-0.40;99.90
11122;DHT22;5615;49.304;10.576;2024-02-14T02:26:12;-0.30;99.90
11122;DHT22;5615;49.304;10.576;2024-02-14T02:28:39;-0.30;99.90
11122;DHT22;5615;49.304;10.576;2024-02-14T02:31:07;-0.20;99.90
11122;DHT22;5615;49.304;10.576;2024-02-14T02:33:34;-0.20;99.90
11122;DHT22;5615;49.304;10.576;2024-02-14T02:36:01;-0.10;99.90
11122;DHT22;5615;49.304;10.576;2024-02-14T02:38:28;0.00;99.90
11122;DHT22;5615;49.304;10.576;2024-02-14T02:40:56;0.10;99.90
11122;DHT22;5615;49.304;10.576;2024-02-14T02:43:22;0.10;99.90
11122;DHT22;5615;49.304;10.576;2024-02-14T02:45:49;0.10;99.90
11122;DHT22;5615;49.304;10.576;2024-02-14T02:48:15;0.10;99.90
11122;DHT22;5615;49.304;10.576;2024-02-14T02:50:42;0.10;99.90
11122;DHT22;5615;49.304;10.576;2024-02-14T02:53:09;0.10;99.90
11122;DHT22;5615;49.304;10.576;2024-02-14T02:55:37;0.10;99.90
11122;DHT22;5615;49.304;10.576;2024-02-14T02:58:05;0.00;99.90
11122;DHT22;5615;49.304;10.576;2024-02-14T03:00:32;-0.10;99.90
11122;DHT22;5615;49.304;10.576;2024-02-14T03:02:59;-0.20;99.90
11122;DHT22;5615;49.304;10.576;2024-02-14T03:05:27;-0.20;99.90
11122;DHT22;5615;49.304;10.576;2024-02-14T03:07:57;-0.20;99.90
11122;DHT22;5615;49.304;10.576;2024-02-14T03:10:24;-0.10;99.90
11122;DHT22;5615;49.304;10.576;2024-02-14T03:12:51;0.00;99.90
11122;DHT22;5615;49.304;10.576;2024-02-14T03:15:19;0.00;99.90
11122;DHT22;5615;49.304;10.576;2024-02-14T03:17:46;-0.10;99.90
11122;DHT22;5615;49.304;10.576;2024-02-14T03:20:14;0.00;99.90
11122;DHT22;5615;49.304;10.576;2024-02-14T03:22:42;0.00;99.90
11122;DHT22;5615;49.304;10.576;2024-02-14T03:25:13;0.00;99.90
11122;DHT22;5615;49.304;10.576;2024-02-14T03:27:40;0.20;99.90
11122;DHT22;5615;49.304;10.576;2024-02-14T03:30:07;0.20;99.90
11122;DHT22;5615;49.304;10.576;2024-02-14T03:32:36;0.30;99.90
11122;DHT22;5615;49.304;10.576;2024-02-14T03:35:03;0.40;99.90
11122;DHT22;5615;49.304;10.576;2024-02-14T03:37:29;0.50;99.90
11122;DHT22;5615;49.304;10.576;2024-02-14T03:39:56;0.50;99.90
11122;DHT22;5615;49.304;10.576;2024-02-14T03:42:23;0.60;99.90
11122;DHT22;5615;49.304;10.576;2024-02-14T03:44:51;0.60;99.90
11122;DHT22;5615;49.304;10.576;2024-02-14T03:47:18;0.50;99.90
11122;DHT22;5615;49.304;10.576;2024-02-14T03:49:46;0.40;99.90
11122;DHT22;5615;49.304;10.576;2024-02-14T03:52:13;0.30;99.90
11122;DHT22;5615;49.304;10.576;2024-02-14T03:54:39;0.30;99.90
11122;DHT22;5615;49.304;10.576;2024-02-14T03:57:06;0.30;99.90
11122;DHT22;5615;49.304;10.576;2024-02-14T03:59:36;0.30;99.90
11122;DHT22;5615;49.304;10.576;2024-02-14T04:02:04;0.30;99.90
11122;DHT22;5615;49.304;10.576;2024-02-14T04:04:32;0.50;99.90
11122;DHT22;5615;49.304;10.576;2024-02-14T04:07:01;0.50;99.90
11122;DHT22;5615;49.304;10.576;2024-02-14T04:09:28;0.60;99.90
11122;DHT22;5615;49.304;10.576;2024-02-14T04:11:54;0.70;99.90
11122;DHT22;5615;49.304;10.576;2024-02-14T04:14:21;0.70;99.90
11122;DHT22;5615;49.304;10.576;2024-02-14T04:16:47;0.80;99.90
11122;DHT22;5615;49.304;10.576;2024-02-14T04:19:14;0.90;99.90
11122;DHT22;5615;49.304;10.576;2024-02-14T04:21:43;1.00;99.90
11122;DHT22;5615;49.304;10.576;2024-02-14T04:24:11;1.00;99.90
11122;DHT22;5615;49.304;10.576;2024-02-14T04:26:38;1.10;99.90
11122;DHT22;5615;49.304;10.576;2024-02-14T04:29:04;1.20;99.90
11122;DHT22;5615;49.304;10.576;2024-02-14T04:31:31;1.30;99.90
11122;DHT22;5615;49.304;10.576;2024-02-14T04:33:58;1.40;99.90
11122;DHT22;5615;49.304;10.576;2024-02-14T04:36:26;1.50;99.90
11122;DHT22;5615;49.304;10.576;2024-02-14T04:38:52;1.60;99.90
11122;DHT22;5615;49.304;10.576;2024-02-14T04:41:22;1.70;99.90
11122;DHT22;5615;49.304;10.576;2024-02-14T04:43:49;1.70;99.90
11122;DHT22;5615;49.304;10.576;2024-02-14T04:46:15;1.80;99.90
11122;DHT22;5615;49.304;10.576;2024-02-14T04:48:42;1.80;99.90
11122;DHT22;5615;49.304;10.576;2024-02-14T04:51:08;1.80;99.90
11122;DHT22;5615;49.304;10.576;2024-02-14T04:53:35;2.00;99.90
11122;DHT22;5615;49.304;10.576;2024-02-14T04:56:02;2.00;99.90
11122;DHT22;5615;49.304;10.576;2024-02-14T04:58:30;2.00;99.90
11122;DHT22;5615;49.304;10.576;2024-02-14T05:00:56;2.10;99.90
11122;DHT22;5615;49.304;10.576;2024-02-14T05:03:23;2.10;99.90
11122;DHT22;5615;49.304;10.576;2024-02-14T05:05:51;2.10;99.90
11122;DHT22;5615;49.304;10.576;2024-02-14T05:08:18;2.10;99.90
11122;DHT22;5615;49.304;10.576;2024-02-14T05:10:44;2.20;99.90
11122;DHT22;5615;49.304;10.576;2024-02-14T05:13:11;2.30;99.90
11122;DHT22;5615;49.304;10.576;2024-02-14T05:15:39;2.30;99.90
11122;DHT22;5615;49.304;10.576;2024-02-14T05:18:07;2.40;99.90
11122;DHT22;5615;49.304;10.576;2024-02-14T05:20:34;2.50;99.90
11122;DHT22;5615;49.304;10.576;2024-02-14T05:23:01;2.50;99.90
11122;DHT22;5615;49.304;10.576;2024-02-14T05:25:28;2.50;99.90
11122;DHT22;5615;49.304;10.576;2024-02-14T05:27:58;2.60;99.90
11122;DHT22;5615;49.304;10.576;2024-02-14T05:30:25;2.70;99.90
11122;DHT22;5615;49.304;10.576;2024-02-14T05:32:54;2.70;99.90
11122;DHT22;5615;49.304;10.576;2024-02-14T05:35:22;2.70;99.90
11122;DHT22;5615;49.304;10.576;2024-02-14T05:37:48;2.80;99.90
11122;DHT22;5615;49.304;10.576;2024-02-14T05:40:16;2.80;99.90
11122;DHT22;5615;49.304;10.576;2024-02-14T05:42:43;2.80;99.90
11122;DHT22;5615;49.304;10.576;2024-02-14T05:45:10;2.90;99.90
11122;DHT22;5615;49.304;10.576;2024-02-14T05:47:36;2.90;99.90
11122;DHT22;5615;49.304;10.576;2024-02-14T05:50:06;2.90;99.90
11122;DHT22;5615;49.304;10.576;2024-02-14T05:52:34;2.90;99.90
11122;DHT22;5615;49.304;10.576;2024-02-14T05:55:01;3.00;99.90
11122;DHT22;5615;49.304;10.576;2024-02-14T05:57:29;3.00;99.90
11122;DHT22;5615;49.304;10.576;2024-02-14T05:59:55;2.90;99.90
11122;DHT22;5615;49.304;10.576;2024-02-14T06:02:22;3.00;99.90
11122;DHT22;5615;49.304;10.576;2024-02-14T06:04:49;3.00;99.90
11122;DHT22;5615;49.304;10.576;2024-02-14T06:07:17;3.10;99.90
11122;DHT22;5615;49.304;10.576;2024-02-14T06:09:43;3.10;99.90
11122;DHT22;5615;49.304;10.576;2024-02-14T06:12:11;3.10;99.90
11122;DHT22;5615;49.304;10.576;2024-02-14T06:14:37;3.20;99.90
11122;DHT22;5615;49.304;10.576;2024-02-14T06:17:04;3.20;99.90
11122;DHT22;5615;49.304;10.576;2024-02-14T06:19:31;3.20;99.90
11122;DHT22;5615;49.304;10.576;2024-02-14T06:21:58;3.30;99.90
11122;DHT22;5615;49.304;10.576;2024-02-14T06:24:26;3.30;99.90
11122;DHT22;5615;49.304;10.576;2024-02-14T06:26:53;3.30;99.90
11122;DHT22;5615;49.304;10.576;2024-02-14T06:29:20;3.30;99.90
11122;DHT22;5615;49.304;10.576;2024-02-14T06:31:46;3.40;99.90
11122;DHT22;5615;49.304;10.576;2024-02-14T06:34:13;3.40;99.90
11122;DHT22;5615;49.304;10.576;2024-02-14T06:36:40;3.40;99.90
11122;DHT22;5615;49.304;10.576;2024-02-14T06:39:06;3.40;99.90
11122;DHT22;5615;49.304;10.576;2024-02-14T06:41:34;3.50;99.90
11122;DHT22;5615;49.304;10.576;2024-02-14T06:44:01;3.60;99.90
11122;DHT22;5615;49.304;10.576;2024-02-14T06:46:28;3.60;99.90
11122;DHT22;5615;49.304;10.576;2024-02-14T06:48:54;3.60;99.90
11122;DHT22;5615;49.304;10.576;2024-02-14T06:51:21;3.60;99.90
11122;DHT22;5615;49.304;10.576;2024-02-14T06:53:49;3.70;99.90
11122;DHT22;5615;49.304;10.576;2024-02-14T06:56:16;3.70;99.90
11122;DHT22;5615;49.304;10.576;2024-02-14T06:58:44;3.80;99.90
11122;DHT22;5615;49.304;10.576;2024-02-14T07:01:11;3.90;99.90
11122;DHT22;5615;49.304;10.576;2024-02-14T07:03:40;3.90;99.90
11122;DHT22;5615;49.304;10.576;2024-02-14T07:06:07;4.10;99.90
11122;DHT22;5615;49.304;10.576;2024-02-14T07:08:34;4.10;99.90
11122;DHT22;5615;49.304;10.576;2024-02-14T07:11:00;4.30;99.90
11122;DHT22;5615;49.304;10.576;2024-02-14T07:13:27;4.40;99.90
11122;DHT22;5615;49.304;10.576;2024-02-14T07:15:55;4.50;99.90
11122;DHT22;5615;49.304;10.576;2024-02-14T07:18:21;4.60;99.90
11122;DHT22;5615;49.304;10.576;2024-02-14T07:20:48;4.60;99.90
11122;DHT22;5615;49.304;10.576;2024-02-14T07:23:16;4.70;99.90
11122;DHT22;5615;49.304;10.576;2024-02-14T07:25:43;4.80;99.90
11122;DHT22;5615;49.304;10.576;2024-02-14T07:28:10;4.80;99.90
11122;DHT22;5615;49.304;10.576;2024-02-14T07:30:37;4.90;99.90
11122;DHT22;5615;49.304;10.576;2024-02-14T07:33:05;5.00;99.90
11122;DHT22;5615;49.304;10.576;2024-02-14T07:35:31;5.10;99.90
11122;DHT22;5615;49.304;10.576;2024-02-14T07:37:58;5.30;99.90
11122;DHT22;5615;49.304;10.576;2024-02-14T07:40:24;5.40;99.90
11122;DHT22;5615;49.304;10.576;2024-02-14T07:42:52;5.50;99.90
11122;DHT22;5615;49.304;10.576;2024-02-14T07:45:19;5.50;99.90
11122;DHT22;5615;49.304;10.576;2024-02-14T07:47:46;5.60;99.90
11122;DHT22;5615;49.304;10.576;2024-02-14T07:50:15;5.60;99.90
11122;DHT22;5615;49.304;10.576;2024-02-14T07:52:42;5.80;99.90
11122;DHT22;5615;49.304;10.576;2024-02-14T07:55:09;5.80;99.90
11122;DHT22;5615;49.304;10.576;2024-02-14T07:57:37;5.80;99.90
11122;DHT22;5615;49.304;10.576;2024-02-14T08:00:05;5.90;99.90
11122;DHT22;5615;49.304;10.576;2024-02-14T08:02:33;5.90;99.90
11122;DHT22;5615;49.304;10.576;2024-02-14T08:05:00;6.00;99.90
11122;DHT22;5615;49.304;10.576;2024-02-14T08:07:28;6.00;99.90
11122;DHT22;5615;49.304;10.576;2024-02-14T08:09:56;6.10;99.90
11122;DHT22;5615;49.304;10.576;2024-02-14T08:12:23;6.10;99.90
11122;DHT22;5615;49.304;10.576;2024-02-14T08:14:51;6.20;99.90
11122;DHT22;5615;49.304;10.576;2024-02-14T08:17:18;6.20;99.90
11122;DHT22;5615;49.304;10.576;2024-02-14T08:19:44;6.30;99.90
11122;DHT22;5615;49.304;10.576;2024-02-14T08:22:11;6.30;99.90
11122;DHT22;5615;49.304;10.576;2024-02-14T08:24:39;6.30;99.90
11122;DHT22;5615;49.304;10.576;2024-02-14T08:27:06;6.40;99.90
11122;DHT22;5615;49.304;10.576;2024-02-14T08:29:32;6.50;99.90
11122;DHT22;5615;49.304;10.576;2024-02-14T08:31:59;6.60;99.90
11122;DHT22;5615;49.304;10.576;2024-02-14T08:34:26;6.80;99.90
11122;DHT22;5615;49.304;10.576;2024-02-14T08:36:53;6.90;99.90
11122;DHT22;5615;49.304;10.576;2024-02-14T08:39:19;6.90;99.90
11122;DHT22;5615;49.304;10.576;2024-02-14T08:41:47;7.10;99.90
11122;DHT22;5615;49.304;10.576;2024-02-14T08:44:15;7.20;99.90
11122;DHT22;5615;49.304;10.576;2024-02-14T08:46:43;7.20;99.90
11122;DHT22;5615;49.304;10.576;2024-02-14T08:49:13;7.20;99.90
11122;DHT22;5615;49.304;10.576;2024-02-14T08:51:40;7.10;99.90
11122;DHT22;5615;49.304;10.576;2024-02-14T08:54:09;7.10;99.90
11122;DHT22;5615;49.304;10.576;2024-02-14T08:56:36;7.30;99.90
11122;DHT22;5615;49.304;10.576;2024-02-14T08:59:04;7.60;99.90
11122;DHT22;5615;49.304;10.576;2024-02-14T09:01:32;8.00;99.90
11122;DHT22;5615;49.304;10.576;2024-02-14T09:03:59;8.30;99.90
11122;DHT22;5615;49.304;10.576;2024-02-14T09:06:26;8.30;99.90
11122;DHT22;5615;49.304;10.576;2024-02-14T09:08:52;8.60;99.90
11122;DHT22;5615;49.304;10.576;2024-02-14T09:11:20;8.80;99.90
11122;DHT22;5615;49.304;10.576;2024-02-14T09:13:48;9.00;99.90
11122;DHT22;5615;49.304;10.576;2024-02-14T09:16:20;8.80;99.90
11122;DHT22;5615;49.304;10.576;2024-02-14T09:18:47;9.00;99.90
11122;DHT22;5615;49.304;10.576;2024-02-14T09:21:14;9.10;99.90
11122;DHT22;5615;49.304;10.576;2024-02-14T09:23:41;9.00;99.90
11122;DHT22;5615;49.304;10.576;2024-02-14T09:26:10;9.10;99.90
11122;DHT22;5615;49.304;10.576;2024-02-14T09:28:40;9.00;99.90
11122;DHT22;5615;49.304;10.576;2024-02-14T09:31:06;8.90;99.90
11122;DHT22;5615;49.304;10.576;2024-02-14T09:33:36;8.90;99.90
11122;DHT22;5615;49.304;10.576;2024-02-14T09:36:03;9.00;99.90
11122;DHT22;5615;49.304;10.576;2024-02-14T09:38:30;9.20;99.90
11122;DHT22;5615;49.304;10.576;2024-02-14T09:41:01;9.30;99.90
11122;DHT22;5615;49.304;10.576;2024-02-14T09:43:34;9.40;99.90
11122;DHT22;5615;49.304;10.576;2024-02-14T09:46:02;9.80;99.90
11122;DHT22;5615;49.304;10.576;2024-02-14T09:48:29;10.10;99.90
11122;DHT22;5615;49.304;10.576;2024-02-14T09:50:58;9.80;99.90
11122;DHT22;5615;49.304;10.576;2024-02-14T09:53:26;10.00;99.90
11122;DHT22;5615;49.304;10.576;2024-02-14T09:55:55;9.90;99.90
11122;DHT22;5615;49.304;10.576;2024-02-14T09:58:22;9.90;99.90
11122;DHT22;5615;49.304;10.576;2024-02-14T10:00:50;9.80;99.90
11122;DHT22;5615;49.304;10.576;2024-02-14T10:03:17;9.80;99.90
11122;DHT22;5615;49.304;10.576;2024-02-14T10:05:43;9.90;99.90
11122;DHT22;5615;49.304;10.576;2024-02-14T10:08:11;10.10;99.90
11122;DHT22;5615;49.304;10.576;2024-02-14T10:10:38;10.10;99.90
11122;DHT22;5615;49.304;10.576;2024-02-14T10:13:05;9.90;99.90
11122;DHT22;5615;49.304;10.576;2024-02-14T10:15:32;9.70;99.90
11122;DHT22;5615;49.304;10.576;2024-02-14T10:17:58;9.60;99.90
11122;DHT22;5615;49.304;10.576;2024-02-14T10:20:25;9.60;99.90
11122;DHT22;5615;49.304;10.576;2024-02-14T10:23:00;9.70;99.90
11122;DHT22;5615;49.304;10.576;2024-02-14T10:25:29;9.80;99.90
11122;DHT22;5615;49.304;10.576;2024-02-14T10:27:56;9.80;99.90
11122;DHT22;5615;49.304;10.576;2024-02-14T10:30:23;10.20;99.90
11122;DHT22;5615;49.304;10.576;2024-02-14T10:32:50;10.50;99.90
11122;DHT22;5615;49.304;10.576;2024-02-14T10:35:17;10.30;99.90
11122;DHT22;5615;49.304;10.576;2024-02-14T10:37:47;10.60;99.90
11122;DHT22;5615;49.304;10.576;2024-02-14T10:40:15;10.60;99.90
11122;DHT22;5615;49.304;10.576;2024-02-14T10:42:43;11.00;99.90
11122;DHT22;5615;49.304;10.576;2024-02-14T10:45:09;10.50;99.90
11122;DHT22;5615;49.304;10.576;2024-02-14T10:47:40;10.20;99.90
11122;DHT22;5615;49.304;10.576;2024-02-14T10:50:10;10.30;99.90
11122;DHT22;5615;49.304;10.576;2024-02-14T10:52:39;10.50;99.90
11122;DHT22;5615;49.304;10.576;2024-02-14T10:55:08;10.20;99.90
11122;DHT22;5615;49.304;10.576;2024-02-14T10:57:37;10.20;99.90
11122;DHT22;5615;49.304;10.576;2024-02-14T11:00:08;10.50;99.90
11122;DHT22;5615;49.304;10.576;2024-02-14T11:02:35;10.60;99.90
11122;DHT22;5615;49.304;10.576;2024-02-14T11:05:03;10.50;99.90
11122;DHT22;5615;49.304;10.576;2024-02-14T11:07:29;10.60;99.90
11122;DHT22;5615;49.304;10.576;2024-02-14T11:10:04;10.80;99.90
11122;DHT22;5615;49.304;10.576;2024-02-14T11:12:33;11.60;99.90
11122;DHT22;5615;49.304;10.576;2024-02-14T11:15:02;11.60;99.90
11122;DHT22;5615;49.304;10.576;2024-02-14T11:17:36;12.80;99.90
11122;DHT22;5615;49.304;10.576;2024-02-14T11:20:13;13.30;99.90
11122;DHT22;5615;49.304;10.576;2024-02-14T11:22:52;14.60;99.90
11122;DHT22;5615;49.304;10.576;2024-02-14T11:25:22;14.70;99.90
11122;DHT22;5615;49.304;10.576;2024-02-14T11:27:50;14.30;99.90
11122;DHT22;5615;49.304;10.576;2024-02-14T11:30:28;14.60;99.90
11122;DHT22;5615;49.304;10.576;2024-02-14T11:35:52;13.30;99.90
11122;DHT22;5615;49.304;10.576;2024-02-14T11:38:19;13.40;99.90
11122;DHT22;5615;49.304;10.576;2024-02-14T11:40:46;14.00;99.90
11122;DHT22;5615;49.304;10.576;2024-02-14T11:43:14;14.30;99.90
11122;DHT22;5615;49.304;10.576;2024-02-14T11:45:42;12.80;99.90
11122;DHT22;5615;49.304;10.576;2024-02-14T11:48:13;11.90;99.90
11122;DHT22;5615;49.304;10.576;2024-02-14T11:50:40;11.70;99.90
11122;DHT22;5615;49.304;10.576;2024-02-14T11:53:10;11.20;99.90
11122;DHT22;5615;49.304;10.576;2024-02-14T11:55:38;11.10;99.90
11122;DHT22;5615;49.304;10.576;2024-02-14T11:58:07;11.00;99.90
11122;DHT22;5615;49.304;10.576;2024-02-14T12:00:35;11.00;99.90
11122;DHT22;5615;49.304;10.576;2024-02-14T12:03:06;11.30;99.90
11122;DHT22;5615;49.304;10.576;2024-02-14T12:05:35;11.50;99.90
11122;DHT22;5615;49.304;10.576;2024-02-14T12:08:04;11.70;99.90
11122;DHT22;5615;49.304;10.576;2024-02-14T12:10:32;11.70;99.90
11122;DHT22;5615;49.304;10.576;2024-02-14T12:13:04;11.80;99.90
11122;DHT22;5615;49.304;10.576;2024-02-14T12:15:37;11.50;99.90
11122;DHT22;5615;49.304;10.576;2024-02-14T12:18:04;11.40;99.90
11122;DHT22;5615;49.304;10.576;2024-02-14T12:20:31;11.30;99.90
11122;DHT22;5615;49.304;10.576;2024-02-14T12:22:59;11.10;99.90
11122;DHT22;5615;49.304;10.576;2024-02-14T12:25:26;11.20;99.90
11122;DHT22;5615;49.304;10.576;2024-02-14T12:27:53;11.20;99.90
11122;DHT22;5615;49.304;10.576;2024-02-14T12:30:19;11.10;99.90
11122;DHT22;5615;49.304;10.576;2024-02-14T12:32:46;11.20;99.90
11122;DHT22;5615;49.304;10.576;2024-02-14T12:35:13;11.30;99.90
11122;DHT22;5615;49.304;10.576;2024-02-14T12:37:39;11.10;99.90
11122;DHT22;5615;49.304;10.576;2024-02-14T12:40:08;11.30;99.90
11122;DHT22;5615;49.304;10.576;2024-02-14T12:42:35;11.20;99.90
11122;DHT22;5615;49.304;10.576;2024-02-14T12:45:02;11.20;99.90
11122;DHT22;5615;49.304;10.576;2024-02-14T12:47:29;11.10;99.90
11122;DHT22;5615;49.304;10.576;2024-02-14T12:49:59;11.10;99.90
11122;DHT22;5615;49.304;10.576;2024-02-14T12:52:25;11.00;99.90
11122;DHT22;5615;49.304;10.576;2024-02-14T12:54:52;10.90;99.90
11122;DHT22;5615;49.304;10.576;2024-02-14T12:57:20;10.70;99.90
11122;DHT22;5615;49.304;10.576;2024-02-14T12:59:48;10.80;99.90
11122;DHT22;5615;49.304;10.576;2024-02-14T13:02:14;10.70;99.90
11122;DHT22;5615;49.304;10.576;2024-02-14T13:04:42;10.70;99.90
11122;DHT22;5615;49.304;10.576;2024-02-14T13:07:08;10.70;99.90
11122;DHT22;5615;49.304;10.576;2024-02-14T13:09:35;10.60;99.90
11122;DHT22;5615;49.304;10.576;2024-02-14T13:12:02;10.60;99.90
11122;DHT22;5615;49.304;10.576;2024-02-14T13:14:32;10.50;99.90
11122;DHT22;5615;49.304;10.576;2024-02-14T13:16:59;10.60;99.90
11122;DHT22;5615;49.304;10.576;2024-02-14T13:19:25;10.60;99.90
11122;DHT22;5615;49.304;10.576;2024-02-14T13:21:52;10.60;99.90
11122;DHT22;5615;49.304;10.576;2024-02-14T13:24:20;10.50;99.90
11122;DHT22;5615;49.304;10.576;2024-02-14T13:26:47;10.20;99.90
11122;DHT22;5615;49.304;10.576;2024-02-14T13:29:13;9.80;99.90
11122;DHT22;5615;49.304;10.576;2024-02-14T13:31:44;9.80;99.90
11122;DHT22;5615;49.304;10.576;2024-02-14T13:34:10;9.80;99.90
11122;DHT22;5615;49.304;10.576;2024-02-14T13:36:37;9.80;99.90
11122;DHT22;5615;49.304;10.576;2024-02-14T13:39:04;9.80;99.90
11122;DHT22;5615;49.304;10.576;2024-02-14T13:41:31;9.80;99.90
11122;DHT22;5615;49.304;10.576;2024-02-14T13:43:57;9.80;99.90
11122;DHT22;5615;49.304;10.576;2024-02-14T13:46:24;9.80;99.90
11122;DHT22;5615;49.304;10.576;2024-02-14T13:48:53;9.80;99.90
11122;DHT22;5615;49.304;10.576;2024-02-14T13:51:19;10.00;99.90
11122;DHT22;5615;49.304;10.576;2024-02-14T13:53:47;10.00;99.90
11122;DHT22;5615;49.304;10.576;2024-02-14T13:56:14;10.20;99.90
11122;DHT22;5615;49.304;10.576;2024-02-14T13:58:42;10.30;99.90
11122;DHT22;5615;49.304;10.576;2024-02-14T14:01:09;10.40;99.90
11122;DHT22;5615;49.304;10.576;2024-02-14T14:03:36;10.50;99.90
11122;DHT22;5615;49.304;10.576;2024-02-14T14:06:05;10.70;99.90
11122;DHT22;5615;49.304;10.576;2024-02-14T14:08:34;10.90;99.90
11122;DHT22;5615;49.304;10.576;2024-02-14T14:11:02;10.90;99.90
11122;DHT22;5615;49.304;10.576;2024-02-14T14:13:29;11.00;99.90
11122;DHT22;5615;49.304;10.576;2024-02-14T14:15:56;11.00;99.90
11122;DHT22;5615;49.304;10.576;2024-02-14T14:18:23;11.10;99.90
11122;DHT22;5615;49.304;10.576;2024-02-14T14:20:49;11.20;99.90
11122;DHT22;5615;49.304;10.576;2024-02-14T14:23:18;11.20;99.90
11122;DHT22;5615;49.304;10.576;2024-02-14T14:25:44;11.20;99.90
11122;DHT22;5615;49.304;10.576;2024-02-14T14:28:11;11.20;99.90
11122;DHT22;5615;49.304;10.576;2024-02-14T14:30:39;11.10;99.90
11122;DHT22;5615;49.304;10.576;2024-02-14T14:33:06;11.10;99.90
11122;DHT22;5615;49.304;10.576;2024-02-14T14:35:33;11.00;99.90
11122;DHT22;5615;49.304;10.576;2024-02-14T14:38:01;11.00;99.90
11122;DHT22;5615;49.304;10.576;2024-02-14T14:40:29;11.00;99.90
11122;DHT22;5615;49.304;10.576;2024-02-14T14:42:56;10.90;99.90
11122;DHT22;5615;49.304;10.576;2024-02-14T14:45:22;10.80;99.90
11122;DHT22;5615;49.304;10.576;2024-02-14T14:47:49;10.70;99.90
11122;DHT22;5615;49.304;10.576;2024-02-14T14:50:16;10.70;99.90
11122;DHT22;5615;49.304;10.576;2024-02-14T14:52:43;10.60;99.90
11122;DHT22;5615;49.304;10.576;2024-02-14T14:55:11;10.60;99.90
11122;DHT22;5615;49.304;10.576;2024-02-14T14:57:39;10.50;99.90
11122;DHT22;5615;49.304;10.576;2024-02-14T15:00:07;10.50;99.90
11122;DHT22;5615;49.304;10.576;2024-02-14T15:02:35;10.40;99.90
11122;DHT22;5615;49.304;10.576;2024-02-14T15:05:01;10.50;99.90
11122;DHT22;5615;49.304;10.576;2024-02-14T15:07:28;10.60;99.90
11122;DHT22;5615;49.304;10.576;2024-02-14T15:09:54;10.60;99.90
11122;DHT22;5615;49.304;10.576;2024-02-14T15:12:21;10.60;99.90
11122;DHT22;5615;49.304;10.576;2024-02-14T15:14:52;10.60;99.90
11122;DHT22;5615;49.304;10.576;2024-02-14T15:17:19;10.60;99.90
11122;DHT22;5615;49.304;10.576;2024-02-14T15:19:46;10.50;99.90
11122;DHT22;5615;49.304;10.576;2024-02-14T15:22:13;10.50;99.90
11122;DHT22;5615;49.304;10.576;2024-02-14T15:24:39;10.50;99.90
11122;DHT22;5615;49.304;10.576;2024-02-14T15:27:08;10.50;99.90
11122;DHT22;5615;49.304;10.576;2024-02-14T15:29:36;10.50;99.90
11122;DHT22;5615;49.304;10.576;2024-02-14T15:32:22;10.50;99.90
11122;DHT22;5615;49.304;10.576;2024-02-14T15:35:07;10.50;99.90
11122;DHT22;5615;49.304;10.576;2024-02-14T15:37:34;10.40;99.90
11122;DHT22;5615;49.304;10.576;2024-02-14T15:40:01;10.40;99.90
11122;DHT22;5615;49.304;10.576;2024-02-14T15:42:28;10.40;99.90